createdAt,value
2019-05-01T00:01:41.536Z,99230.58
2019-05-01T00:03:57.047Z,99230.17
2019-05-01T00:06:05.210Z,99232.00
2019-05-01T00:08:12.636Z,99234.23
2019-05-01T00:10:22.526Z,99231.20
2019-05-01T00:12:29.186Z,99226.38
2019-05-01T00:14:35.867Z,99230.41
2019-05-01T00:16:42.422Z,99228.23
2019-05-01T00:19:06.490Z,99233.13
2019-05-01T00:21:11.783Z,99234.50
2019-05-01T00:23:18.384Z,99233.69
2019-05-01T00:25:24.978Z,99228.45
2019-05-01T00:27:31.366Z,99238.16
2019-05-01T00:29:37.823Z,99244.28
2019-05-01T00:31:45.945Z,99245.61
2019-05-01T00:33:52.412Z,99239.03
2019-05-01T00:35:58.964Z,99244.71
2019-05-01T00:38:05.543Z,99247.30
2019-05-01T00:40:12.003Z,99244.59
2019-05-01T00:42:18.389Z,99249.84
2019-05-01T00:44:24.970Z,99250.20
2019-05-01T00:46:31.367Z,99244.94
2019-05-01T00:48:37.762Z,99243.12
2019-05-01T00:50:44.265Z,99241.77
2019-05-01T00:52:51.981Z,99246.16
2019-05-01T00:55:15.988Z,99245.70
2019-05-01T00:57:24.112Z,99239.11
2019-05-01T00:59:34.738Z,99237.34
2019-05-01T01:01:42.940Z,99239.98
2019-05-01T01:03:49.395Z,99238.66
2019-05-01T01:05:56.962Z,99243.03
2019-05-01T01:08:03.337Z,99242.59
2019-05-01T01:10:10.388Z,99239.48
2019-05-01T01:12:17.259Z,99235.10
2019-05-01T01:14:23.735Z,99231.58
2019-05-01T01:16:30.237Z,99227.62
2019-05-01T01:18:36.818Z,99228.48
2019-05-01T01:20:43.286Z,99223.64
2019-05-01T01:22:50.908Z,99226.72
2019-05-01T01:24:57.444Z,99221.42
2019-05-01T01:27:04.053Z,99218.78
2019-05-01T01:29:10.609Z,99221.88
2019-05-01T01:31:16.994Z,99217.94
2019-05-01T01:33:23.466Z,99226.70
2019-05-01T01:35:29.952Z,99211.80
2019-05-01T01:37:36.488Z,99213.55
2019-05-01T01:39:43.186Z,99213.56
2019-05-01T01:41:50.082Z,99207.86
2019-05-01T01:43:56.450Z,99206.98
2019-05-01T01:46:11.261Z,99202.61
2019-05-01T01:48:18.009Z,99199.55
2019-05-01T01:50:24.694Z,99205.70
2019-05-01T01:52:32.098Z,99196.07
2019-05-01T01:54:38.521Z,99198.70
2019-05-01T01:56:45.230Z,99190.77
2019-05-01T01:58:52.690Z,99187.25
2019-05-01T02:01:09.554Z,99187.67
2019-05-01T02:03:14.096Z,99184.16
2019-05-01T02:05:22.387Z,99177.56
2019-05-01T02:07:28.866Z,99178.45
2019-05-01T02:09:35.499Z,99178.89
2019-05-01T02:11:42.540Z,99175.36
2019-05-01T02:13:49.366Z,99172.28
2019-05-01T02:15:55.817Z,99171.84
2019-05-01T02:18:02.347Z,99165.27
2019-05-01T02:20:09.775Z,99167.88
2019-05-01T02:22:16.308Z,99157.79
2019-05-01T02:24:22.839Z,99157.77
2019-05-01T02:26:41.119Z,99155.57
2019-05-01T02:28:50.015Z,99150.77
2019-05-01T02:31:27.325Z,99148.13
2019-05-01T02:33:23.022Z,99144.16
2019-05-01T02:35:31.322Z,99146.77
2019-05-01T02:37:39.655Z,99143.25
2019-05-01T02:39:49.631Z,99138.44
2019-05-01T02:42:00.646Z,99136.69
2019-05-01T02:44:14.341Z,99138.86
2019-05-01T02:46:23.178Z,99130.09
2019-05-01T02:48:34.485Z,99123.09
2019-05-01T02:50:42.952Z,99126.58
2019-05-01T02:52:50.279Z,99131.41
2019-05-01T02:55:03.375Z,99121.78
2019-05-01T02:57:12.126Z,99120.91
2019-05-01T02:59:20.167Z,99121.81
2019-05-01T03:01:44.668Z,99113.51
2019-05-01T03:03:36.767Z,99114.83
2019-05-01T03:05:43.393Z,99111.31
2019-05-01T03:07:49.999Z,99107.38
2019-05-01T03:09:56.919Z,99106.50
2019-05-01T03:12:05.143Z,99099.05
2019-05-01T03:14:16.118Z,99103.88
2019-05-01T03:16:25.490Z,99097.73
2019-05-01T03:18:33.560Z,99099.48
2019-05-01T03:20:42.526Z,99098.63
2019-05-01T03:22:50.692Z,99091.61
2019-05-01T03:24:57.655Z,99096.03
2019-05-01T03:27:05.054Z,99091.25
2019-05-01T03:29:11.645Z,99089.94
2019-05-01T03:31:18.704Z,99098.27
2019-05-01T03:33:26.582Z,99092.56
2019-05-01T03:35:33.717Z,99091.69
2019-05-01T03:37:40.551Z,99088.66
2019-05-01T03:39:47.707Z,99087.37
2019-05-01T03:41:55.099Z,99083.86
2019-05-01T03:44:01.782Z,99088.71
2019-05-01T03:46:09.388Z,99085.27
2019-05-01T03:48:16.280Z,99080.03
2019-05-01T03:50:22.999Z,99079.59
2019-05-01T03:52:30.094Z,99077.84
2019-05-01T03:54:37.179Z,99078.74
2019-05-01T03:56:44.033Z,99073.52
2019-05-01T03:58:50.999Z,99072.16
2019-05-01T04:01:15.660Z,99069.53
2019-05-01T04:03:22.289Z,99081.77
2019-05-01T04:05:28.879Z,99076.94
2019-05-01T04:07:37.192Z,99079.53
2019-05-01T04:09:43.948Z,99072.89
2019-05-01T04:11:51.143Z,99075.92
2019-05-01T04:13:58.362Z,99078.98
2019-05-01T04:16:05.285Z,99081.12
2019-05-01T04:18:12.821Z,99089.86
2019-05-01T04:20:19.522Z,99084.63
2019-05-01T04:22:26.378Z,99089.03
2019-05-01T04:24:33.243Z,99087.29
2019-05-01T04:26:39.696Z,99085.53
2019-05-01T04:28:51.631Z,99086.39
2019-05-01T04:31:02.540Z,99086.34
2019-05-01T04:33:10.866Z,99074.39
2019-05-01T04:35:22.314Z,99087.52
2019-05-01T04:37:29.845Z,99081.33
2019-05-01T04:39:36.705Z,99084.80
2019-05-01T04:41:43.522Z,99075.97
2019-05-01T04:43:50.245Z,99079.03
2019-05-01T04:45:57.777Z,99079.43
2019-05-01T04:48:04.744Z,99076.66
2019-05-01T04:50:11.457Z,99074.31
2019-05-01T04:52:18.066Z,99068.11
2019-05-01T04:54:25.011Z,99061.75
2019-05-01T04:56:31.482Z,99058.54
2019-05-01T04:58:38.636Z,99059.23
2019-05-01T05:00:45.217Z,99060.92
2019-05-01T05:03:08.624Z,99057.30
2019-05-01T05:05:15.628Z,99060.78
2019-05-01T05:07:22.260Z,99052.15
2019-05-01T05:09:45.618Z,99050.98
2019-05-01T05:11:54.471Z,99046.21
2019-05-01T05:14:08.668Z,99044.52
2019-05-01T05:16:17.313Z,99040.25
2019-05-01T05:18:23.980Z,99044.45
2019-05-01T05:20:32.338Z,99040.53
2019-05-01T05:22:39.878Z,99046.47
2019-05-01T05:24:47.494Z,99041.90
2019-05-01T05:26:54.977Z,99036.98
2019-05-01T05:29:01.994Z,99037.77
2019-05-01T05:31:11.266Z,99040.23
2019-05-01T05:33:22.033Z,99036.27
2019-05-01T05:35:31.556Z,99037.12
2019-05-01T05:37:53.755Z,99035.69
2019-05-01T05:40:01.922Z,99033.85
2019-05-01T05:42:10.010Z,99036.80
2019-05-01T05:44:16.628Z,99035.28
2019-05-01T05:46:23.663Z,99038.22
2019-05-01T05:48:30.304Z,99031.04
2019-05-01T05:50:41.119Z,99032.48
2019-05-01T05:52:58.603Z,99033.95
2019-05-01T05:55:16.636Z,99044.66
2019-05-01T05:57:29.900Z,99043.02
2019-05-01T05:59:41.841Z,99048.58
2019-05-01T06:02:00.543Z,99044.58
2019-05-01T06:04:24.433Z,99046.02
2019-05-01T06:06:53.453Z,99038.24
2019-05-01T06:09:04.494Z,99036.03
2019-05-01T06:11:21.781Z,99031.38
2019-05-01T06:13:39.154Z,99033.70
2019-05-01T06:15:53.552Z,99034.53
2019-05-01T06:18:04.108Z,99027.28
2019-05-01T06:20:25.726Z,99029.97
2019-05-01T06:22:32.891Z,99029.88
2019-05-01T06:24:44.360Z,99026.76
2019-05-01T06:26:51.100Z,99023.16
2019-05-01T06:29:00.751Z,99028.94
2019-05-01T06:31:22.908Z,99025.41
2019-05-01T06:33:28.323Z,99024.50
2019-05-01T06:35:38.257Z,99021.97
2019-05-01T06:38:03.369Z,99021.21
2019-05-01T06:40:11.730Z,99028.62
2019-05-01T06:42:19.772Z,99026.88
2019-05-01T06:44:33.549Z,99020.52
2019-05-01T06:46:40.932Z,99024.63
2019-05-01T06:49:12.022Z,99019.77
2019-05-01T06:51:34.865Z,99025.80
2019-05-01T06:53:43.265Z,99027.69
2019-05-01T06:55:51.560Z,99019.88
2019-05-01T06:57:57.594Z,99024.85
2019-05-01T07:00:08.112Z,99025.09
2019-05-01T07:02:18.804Z,99025.20
2019-05-01T07:04:25.490Z,99025.95
2019-05-01T07:06:32.928Z,99027.27
2019-05-01T07:08:39.859Z,99021.59
2019-05-01T07:10:46.791Z,99019.36
2019-05-01T07:12:54.462Z,99019.86
2019-05-01T07:15:01.962Z,99026.40
2019-05-01T07:17:13.568Z,99022.20
2019-05-01T07:19:20.051Z,99022.63
2019-05-01T07:21:27.739Z,99028.95
2019-05-01T07:23:34.024Z,99035.52
2019-05-01T07:25:40.681Z,99035.02
2019-05-01T07:27:47.474Z,99031.55
2019-05-01T07:29:55.924Z,99032.86
2019-05-01T07:32:06.442Z,99031.91
2019-05-01T07:34:16.346Z,99041.11
2019-05-01T07:36:17.941Z,99043.98
2019-05-01T07:38:24.508Z,99033.51
2019-05-01T07:40:31.237Z,99039.14
2019-05-01T07:42:48.199Z,99030.27
2019-05-01T07:45:03.941Z,99028.41
2019-05-01T07:47:30.518Z,99025.39
2019-05-01T07:49:55.243Z,99022.62
2019-05-01T07:52:01.968Z,99030.10
2019-05-01T07:54:09.021Z,99031.25
2019-05-01T07:56:17.239Z,99033.34
2019-05-01T07:58:23.212Z,99035.16
2019-05-01T08:00:41.564Z,99034.50
2019-05-01T08:02:46.526Z,99038.52
2019-05-01T08:04:52.964Z,99038.67
2019-05-01T08:06:59.353Z,99035.83
2019-05-01T08:09:11.226Z,99040.72
2019-05-01T08:11:15.986Z,99040.95
2019-05-01T08:13:22.390Z,99044.59
2019-05-01T08:15:32.454Z,99048.22
2019-05-01T08:17:38.553Z,99042.15
2019-05-01T08:19:46.604Z,99047.28
2019-05-01T08:21:56.977Z,99041.59
2019-05-01T08:24:02.748Z,99049.73
2019-05-01T08:26:10.359Z,99043.46
2019-05-01T08:28:21.430Z,99043.97
2019-05-01T08:30:38.422Z,99040.69
2019-05-01T08:32:46.529Z,99039.06
2019-05-01T08:35:00.414Z,99037.39
2019-05-01T08:37:06.527Z,99033.62
2019-05-01T08:39:13.938Z,99043.58
2019-05-01T08:41:20.470Z,99042.20
2019-05-01T08:43:26.973Z,99037.70
2019-05-01T08:45:47.146Z,99035.91
2019-05-01T08:47:56.756Z,99036.78
2019-05-01T08:50:05.769Z,99034.55
2019-05-01T08:52:13.920Z,99033.57
2019-05-01T08:54:19.468Z,99031.56
2019-05-01T08:56:25.975Z,99024.35
2019-05-01T08:58:32.377Z,99026.02
2019-05-01T09:00:41.274Z,99020.00
2019-05-01T09:02:47.314Z,99018.13
2019-05-01T09:05:02.117Z,99028.45
2019-05-01T09:07:02.029Z,99024.09
2019-05-01T09:09:10.182Z,99021.89
2019-05-01T09:11:17.412Z,99023.48
2019-05-01T09:13:24.786Z,99016.62
2019-05-01T09:15:31.672Z,99016.14
2019-05-01T09:17:38.086Z,99018.11
2019-05-01T09:19:44.471Z,99008.86
2019-05-01T09:21:50.955Z,99016.91
2019-05-01T09:23:57.491Z,99008.50
2019-05-01T09:26:14.536Z,99012.23
2019-05-01T09:28:17.097Z,99010.72
2019-05-01T09:30:26.994Z,99006.52
2019-05-01T09:32:33.533Z,99010.85
2019-05-01T09:34:41.559Z,99002.75
2019-05-01T09:36:47.961Z,99001.01
2019-05-01T09:38:54.429Z,98998.01
2019-05-01T09:41:00.949Z,99001.69
2019-05-01T09:43:07.507Z,99000.00
2019-05-01T09:45:17.719Z,99000.88
2019-05-01T09:47:24.450Z,98996.97
2019-05-01T09:49:31.007Z,99000.32
2019-05-01T09:51:37.229Z,98993.37
2019-05-01T09:53:54.693Z,98989.20
2019-05-01T09:56:07.965Z,98985.46
2019-05-01T09:58:13.832Z,98983.98
2019-05-01T10:00:22.586Z,98979.94
2019-05-01T10:02:28.988Z,98980.70
2019-05-01T10:04:38.767Z,98986.26
2019-05-01T10:06:47.657Z,98978.68
2019-05-01T10:08:53.472Z,98977.12
2019-05-01T10:11:04.994Z,98971.09
2019-05-01T10:13:08.140Z,98964.73
2019-05-01T10:15:15.028Z,98968.89
2019-05-01T10:17:21.496Z,98962.97
2019-05-01T10:19:28.045Z,98968.60
2019-05-01T10:21:34.433Z,98964.87
2019-05-01T10:23:40.830Z,98967.81
2019-05-01T10:25:49.831Z,98969.74
2019-05-01T10:28:00.440Z,98958.99
2019-05-01T10:30:14.648Z,98957.73
2019-05-01T10:32:24.250Z,98957.02
2019-05-01T10:34:48.316Z,98955.28
2019-05-01T10:36:55.842Z,98953.88
2019-05-01T10:39:02.602Z,98951.57
2019-05-01T10:41:10.731Z,98949.84
2019-05-01T10:43:17.811Z,98950.70
2019-05-01T10:45:24.284Z,98940.80
2019-05-01T10:47:32.319Z,98948.41
2019-05-01T10:49:38.709Z,98940.81
2019-05-01T10:51:45.957Z,98944.39
2019-05-01T10:53:52.363Z,98934.97
2019-05-01T10:55:58.757Z,98941.22
2019-05-01T10:58:06.990Z,98935.22
2019-05-01T11:00:14.560Z,98933.29
2019-05-01T11:02:21.652Z,98930.73
2019-05-01T11:04:31.114Z,98925.78
2019-05-01T11:06:39.118Z,98924.30
2019-05-01T11:08:45.492Z,98925.56
2019-05-01T11:10:51.940Z,98924.57
2019-05-01T11:12:58.405Z,98921.69
2019-05-01T11:15:08.175Z,98921.31
2019-05-01T11:17:14.742Z,98918.77
2019-05-01T11:19:21.215Z,98920.98
2019-05-01T11:21:27.830Z,98923.27
2019-05-01T11:23:34.319Z,98918.66
2019-05-01T11:25:40.875Z,98913.28
2019-05-01T11:27:47.342Z,98914.16
2019-05-01T11:29:53.828Z,98908.70
2019-05-01T11:32:08.368Z,98905.37
2019-05-01T11:34:19.484Z,98900.03
2019-05-01T11:36:26.710Z,98904.96
2019-05-01T11:38:51.014Z,98897.45
2019-05-01T11:41:05.859Z,98891.19
2019-05-01T11:43:12.291Z,98891.48
2019-05-01T11:45:20.021Z,98890.69
2019-05-01T11:51:19.463Z,98885.38
2019-05-01T11:53:25.860Z,98877.31
2019-05-01T11:55:32.427Z,98874.63
2019-05-01T11:57:38.822Z,98872.92
2019-05-01T11:59:45.222Z,98876.12
2019-05-01T12:01:51.784Z,98873.30
2019-05-01T12:03:58.287Z,98869.19
2019-05-01T12:06:04.814Z,98870.52
2019-05-01T12:08:11.236Z,98873.65
2019-05-01T12:10:18.508Z,98878.31
2019-05-01T12:12:26.683Z,98871.78
2019-05-01T12:14:33.155Z,98862.71
2019-05-01T12:16:59.501Z,98860.11
2019-05-01T12:19:06.117Z,98856.16
2019-05-01T12:21:12.554Z,98857.78
2019-05-01T12:23:19.816Z,98853.36
2019-05-01T12:25:26.470Z,98863.57
2019-05-01T12:27:32.950Z,98857.97
2019-05-01T12:29:39.340Z,98857.08
2019-05-01T12:31:45.731Z,98862.45
2019-05-01T12:33:52.139Z,98862.12
2019-05-01T12:36:00.173Z,98859.52
2019-05-01T12:38:06.639Z,98857.78
2019-05-01T12:40:16.511Z,98860.38
2019-05-01T12:42:24.607Z,98859.77
2019-05-01T12:44:31.080Z,98858.10
2019-05-01T12:46:45.028Z,98862.74
2019-05-01T12:48:51.506Z,98854.80
2019-05-01T12:50:58.053Z,98859.12
2019-05-01T12:53:06.198Z,98854.00
2019-05-01T12:55:12.552Z,98851.73
2019-05-01T12:57:19.792Z,98841.39
2019-05-01T12:59:26.256Z,98842.77
2019-05-01T13:01:34.062Z,98835.08
2019-05-01T13:03:40.446Z,98847.24
2019-05-01T13:05:46.936Z,98834.84
2019-05-01T13:07:53.471Z,98829.27
2019-05-01T13:10:00.456Z,98826.89
2019-05-01T13:12:07.037Z,98827.67
2019-05-01T13:14:13.430Z,98826.61
2019-05-01T13:16:19.881Z,98823.94
2019-05-01T13:18:26.304Z,98826.27
2019-05-01T13:20:32.690Z,98820.49
2019-05-01T13:22:39.087Z,98809.91
2019-05-01T13:24:51.032Z,98818.38
2019-05-01T13:27:00.330Z,98806.85
2019-05-01T13:29:08.886Z,98809.54
2019-05-01T13:31:15.131Z,98811.67
2019-05-01T13:33:21.656Z,98812.66
2019-05-01T13:35:30.551Z,98805.95
2019-05-01T13:37:38.870Z,98799.64
2019-05-01T13:39:45.412Z,98806.59
2019-05-01T13:41:53.501Z,98806.44
2019-05-01T13:43:59.986Z,98797.51
2019-05-01T13:46:06.440Z,98802.16
2019-05-01T13:48:23.120Z,98798.70
2019-05-01T13:50:29.737Z,98788.97
2019-05-01T13:52:36.188Z,98786.82
2019-05-01T13:54:42.644Z,98785.07
2019-05-01T13:56:49.151Z,98776.73
2019-05-01T13:58:56.546Z,98777.81
2019-05-01T14:01:03.351Z,98772.95
2019-05-01T14:03:10.051Z,98779.20
2019-05-01T14:05:16.744Z,98776.45
2019-05-01T14:07:23.208Z,98779.96
2019-05-01T14:09:31.255Z,98773.22
2019-05-01T14:11:37.775Z,98782.11
2019-05-01T14:13:44.214Z,98773.36
2019-05-01T14:15:51.334Z,98774.08
2019-05-01T14:17:57.721Z,98787.84
2019-05-01T14:20:06.856Z,98770.18
2019-05-01T14:22:26.726Z,98781.08
2019-05-01T14:24:34.823Z,98778.47
2019-05-01T14:26:42.831Z,98772.88
2019-05-01T14:28:53.101Z,98779.28
2019-05-01T14:30:59.626Z,98773.17
2019-05-01T14:33:09.627Z,98774.77
2019-05-01T14:35:18.875Z,98769.89
2019-05-01T14:37:29.675Z,98768.94
2019-05-01T14:39:33.433Z,98767.27
2019-05-01T14:41:41.523Z,98768.41
2019-05-01T14:43:47.904Z,98763.36
2019-05-01T14:45:55.972Z,98760.48
2019-05-01T14:48:02.528Z,98772.27
2019-05-01T14:50:11.999Z,98759.80
2019-05-01T14:52:19.057Z,98760.45
2019-05-01T14:54:25.468Z,98761.00
2019-05-01T14:56:31.877Z,98758.31
2019-05-01T14:58:38.269Z,98761.94
2019-05-01T15:00:44.710Z,98761.84
2019-05-01T15:02:51.156Z,98771.64
2019-05-01T15:04:57.535Z,98760.84
2019-05-01T15:07:04.022Z,98765.02
2019-05-01T15:09:11.055Z,98767.13
2019-05-01T15:11:17.641Z,98767.39
2019-05-01T15:13:26.739Z,98762.64
2019-05-01T15:15:36.365Z,98762.35
2019-05-01T15:17:47.310Z,98762.03
2019-05-01T15:20:01.693Z,98758.77
2019-05-01T15:22:08.408Z,98763.66
2019-05-01T15:24:14.944Z,98764.95
2019-05-01T15:26:21.353Z,98756.02
2019-05-01T15:28:28.000Z,98757.69
2019-05-01T15:30:35.462Z,98756.74
2019-05-01T15:32:41.876Z,98755.11
2019-05-01T15:34:48.266Z,98752.72
2019-05-01T15:36:54.658Z,98755.66
2019-05-01T15:39:02.385Z,98757.02
2019-05-01T15:41:28.047Z,98765.26
2019-05-01T15:43:42.902Z,98757.84
2019-05-01T15:45:49.364Z,98754.47
2019-05-01T15:47:55.813Z,98749.66
2019-05-01T15:50:02.222Z,98756.97
2019-05-01T15:52:08.687Z,98756.55
2019-05-01T15:54:15.192Z,98748.19
2019-05-01T15:57:04.344Z,98754.60
2019-05-01T15:59:11.530Z,98753.98
2019-05-01T16:01:17.900Z,98744.76
2019-05-01T16:03:24.353Z,98748.09
2019-05-01T16:05:30.769Z,98752.93
2019-05-01T16:07:37.144Z,98749.16
2019-05-01T16:09:43.600Z,98743.06
2019-05-01T16:12:09.474Z,98742.20
2019-05-01T16:14:16.860Z,98748.95
2019-05-01T16:16:23.262Z,98740.67
2019-05-01T16:18:29.683Z,98746.05
2019-05-01T16:20:36.154Z,98744.85
2019-05-01T16:22:42.602Z,98738.70
2019-05-01T16:24:49.008Z,98743.34
2019-05-01T16:26:55.393Z,98746.77
2019-05-01T16:29:01.774Z,98748.38
2019-05-01T16:31:08.319Z,98749.00
2019-05-01T16:33:14.699Z,98744.51
2019-05-01T16:35:21.143Z,98751.25
2019-05-01T16:37:27.628Z,98746.39
2019-05-01T16:39:48.000Z,98755.97
2019-05-01T16:41:54.451Z,98751.27
2019-05-01T16:44:00.856Z,98749.47
2019-05-01T16:46:07.554Z,98750.61
2019-05-01T16:48:13.978Z,98751.89
2019-05-01T16:50:20.624Z,98753.33
2019-05-01T16:52:28.670Z,98750.91
2019-05-01T16:54:35.057Z,98752.97
2019-05-01T16:56:41.631Z,98754.08
2019-05-01T16:58:48.158Z,98755.86
2019-05-01T17:01:01.468Z,98757.98
2019-05-01T17:03:10.014Z,98762.73
2019-05-01T17:05:28.324Z,98761.72
2019-05-01T17:07:36.341Z,98759.73
2019-05-01T17:10:02.925Z,98764.05
2019-05-01T17:12:10.997Z,98758.62
2019-05-01T17:14:18.610Z,98761.13
2019-05-01T17:16:25.463Z,98759.58
2019-05-01T17:18:31.858Z,98764.30
2019-05-01T17:20:38.455Z,98761.94
2019-05-01T17:22:46.292Z,98762.75
2019-05-01T17:24:53.235Z,98764.30
2019-05-01T17:26:59.631Z,98765.84
2019-05-01T17:29:06.879Z,98758.48
2019-05-01T17:31:13.348Z,98765.26
2019-05-01T17:33:21.683Z,98764.22
2019-05-01T17:35:27.894Z,98762.67
2019-05-01T17:37:34.293Z,98766.44
2019-05-01T17:39:40.753Z,98763.05
2019-05-01T17:41:48.770Z,98757.05
2019-05-01T17:43:56.658Z,98764.00
2019-05-01T17:46:05.869Z,98769.92
2019-05-01T17:48:12.816Z,98770.98
2019-05-01T17:50:21.027Z,98767.59
2019-05-01T17:52:27.285Z,98772.52
2019-05-01T17:54:33.753Z,98771.41
2019-05-01T17:56:41.021Z,98776.05
2019-05-01T17:58:47.691Z,98779.84
2019-05-01T18:00:55.836Z,98776.91
2019-05-01T18:03:16.208Z,98781.87
2019-05-01T18:05:24.299Z,98782.95
2019-05-01T18:07:33.357Z,98784.42
2019-05-01T18:09:39.103Z,98792.08
2019-05-01T18:11:47.346Z,98783.94
2019-05-01T18:13:53.790Z,98781.53
2019-05-01T18:16:00.308Z,98793.67
2019-05-01T18:18:10.859Z,98786.36
2019-05-01T18:20:15.134Z,98791.84
2019-05-01T18:22:32.144Z,98785.44
2019-05-01T18:24:39.153Z,98785.61
2019-05-01T18:27:03.749Z,98785.81
2019-05-01T18:29:12.700Z,98790.75
2019-05-01T18:31:21.000Z,98792.66
2019-05-01T18:33:27.421Z,98789.64
2019-05-01T18:35:34.053Z,98785.84
2019-05-01T18:37:54.336Z,98793.90
2019-05-01T18:40:00.920Z,98791.28
2019-05-01T18:42:09.169Z,98791.36
2019-05-01T18:44:15.564Z,98789.80
2019-05-01T18:46:22.897Z,98791.29
2019-05-01T18:48:29.661Z,98794.02
2019-05-01T18:50:36.178Z,98787.98
2019-05-01T18:52:42.675Z,98790.83
2019-05-01T18:54:49.141Z,98794.96
2019-05-01T18:56:55.683Z,98794.16
2019-05-01T18:59:02.208Z,98796.97
2019-05-01T19:01:09.741Z,98798.02
2019-05-01T19:03:16.932Z,98792.89
2019-05-01T19:05:23.352Z,98790.87
2019-05-01T19:07:29.765Z,98790.63
2019-05-01T19:09:37.866Z,98787.23
2019-05-01T19:11:49.119Z,98796.70
2019-05-01T19:13:55.969Z,98789.81
2019-05-01T19:16:03.351Z,98792.19
2019-05-01T19:18:10.594Z,98791.86
2019-05-01T19:20:17.254Z,98789.80
2019-05-01T19:22:23.721Z,98785.01
2019-05-01T19:24:32.416Z,98791.73
2019-05-01T19:26:42.680Z,98782.59
2019-05-01T19:28:47.263Z,98786.66
2019-05-01T19:30:56.620Z,98778.47
2019-05-01T19:33:04.816Z,98785.26
2019-05-01T19:35:12.040Z,98782.86
2019-05-01T19:37:21.817Z,98780.48
2019-05-01T19:39:26.798Z,98781.59
2019-05-01T19:41:33.371Z,98781.77
2019-05-01T19:43:41.990Z,98775.28
2019-05-01T19:45:49.494Z,98779.77
2019-05-01T19:47:57.037Z,98776.27
2019-05-01T19:50:09.487Z,98773.73
2019-05-01T19:52:15.777Z,98767.63
2019-05-01T19:54:23.089Z,98770.77
2019-05-01T19:56:30.383Z,98767.39
2019-05-01T19:58:38.070Z,98764.14
2019-05-01T20:00:55.414Z,98762.28
2019-05-01T20:03:02.228Z,98766.10
2019-05-01T20:05:11.954Z,98764.63
2019-05-01T20:07:21.402Z,98760.39
2019-05-01T20:09:26.854Z,98762.76
2019-05-01T20:11:33.465Z,98763.34
2019-05-01T20:13:40.261Z,98767.87
2019-05-01T20:15:47.066Z,98764.91
2019-05-01T20:17:53.475Z,98763.31
2019-05-01T20:20:00.068Z,98771.30
2019-05-01T20:22:07.911Z,98770.06
2019-05-01T20:24:18.969Z,98774.48
2019-05-01T20:26:26.831Z,98780.72
2019-05-01T20:28:33.312Z,98779.38
2019-05-01T20:30:42.215Z,98772.72
2019-05-01T20:32:49.449Z,98780.98
2019-05-01T20:34:59.104Z,98788.34
2019-05-01T20:37:05.281Z,98791.31
2019-05-01T20:39:11.840Z,98792.98
2019-05-01T20:41:18.497Z,98796.91
2019-05-01T20:43:25.116Z,98785.44
2019-05-01T20:45:31.613Z,98791.60
2019-05-01T20:47:45.523Z,98788.57
2019-05-01T20:49:48.147Z,98790.34
2019-05-01T20:51:54.552Z,98787.29
2019-05-01T20:54:00.969Z,98787.34
2019-05-01T20:56:11.672Z,98783.77
2019-05-01T20:58:19.458Z,98784.65
2019-05-01T21:00:27.585Z,98784.20
2019-05-01T21:02:33.983Z,98781.53
2019-05-01T21:05:01.089Z,98777.14
2019-05-01T21:07:15.489Z,98778.09
2019-05-01T21:09:25.599Z,98775.91
2019-05-01T21:11:47.256Z,98775.91
2019-05-01T21:13:56.659Z,98775.91
2019-05-01T21:16:01.775Z,98774.16
2019-05-01T21:18:08.679Z,98777.25
2019-05-01T21:20:15.598Z,98774.20
2019-05-01T21:22:23.399Z,98772.01
2019-05-01T21:24:30.257Z,98774.66
2019-05-01T21:26:36.994Z,98769.36
2019-05-01T21:28:45.072Z,98765.42
2019-05-01T21:30:54.227Z,98760.98
2019-05-01T21:33:08.209Z,98757.02
2019-05-01T21:35:09.715Z,98756.98
2019-05-01T21:37:17.827Z,98752.52
2019-05-01T21:39:26.969Z,98759.03
2019-05-01T21:41:34.758Z,98757.98
2019-05-01T21:43:42.493Z,98742.87
2019-05-01T21:45:49.131Z,98743.60
2019-05-01T21:47:56.174Z,98744.83
2019-05-01T21:50:06.589Z,98742.98
2019-05-01T21:52:13.597Z,98737.62
2019-05-01T21:54:20.598Z,98740.22
2019-05-01T21:56:28.376Z,98735.75
2019-05-01T21:58:35.966Z,98733.42
2019-05-01T22:00:43.059Z,98734.27
2019-05-01T22:02:49.933Z,98730.25
2019-05-01T22:04:56.433Z,98728.00
2019-05-01T22:07:03.038Z,98725.70
2019-05-01T22:09:15.220Z,98719.45
2019-05-01T22:11:19.654Z,98718.50
2019-05-01T22:13:26.267Z,98711.80
2019-05-01T22:15:47.104Z,98710.39
2019-05-01T22:17:55.151Z,98706.81
2019-05-01T22:20:01.613Z,98702.84
2019-05-01T22:22:29.112Z,98695.86
2019-05-01T22:24:53.030Z,98694.61
2019-05-01T22:27:01.133Z,98686.78
2019-05-01T22:29:12.413Z,98687.31
2019-05-01T22:31:21.736Z,98678.52
2019-05-01T22:33:32.910Z,98685.62
2019-05-01T22:35:47.475Z,98673.73
2019-05-01T22:37:54.034Z,98679.03
2019-05-01T22:40:02.209Z,98670.27
2019-05-01T22:42:08.739Z,98674.22
2019-05-01T22:44:18.037Z,98671.20
2019-05-01T22:46:25.106Z,98669.95
2019-05-01T22:48:31.585Z,98671.70
2019-05-01T22:50:38.399Z,98665.65
2019-05-01T22:52:44.861Z,98666.13
2019-05-01T22:54:51.391Z,98662.60
2019-05-01T22:56:57.834Z,98659.03
2019-05-01T22:59:04.944Z,98655.06
2019-05-01T23:01:13.221Z,98655.96
2019-05-01T23:03:21.488Z,98650.64
2019-05-01T23:05:29.442Z,98651.52
2019-05-01T23:07:36.060Z,98653.73
2019-05-01T23:09:42.707Z,98650.66
2019-05-01T23:11:49.534Z,98642.78
2019-05-01T23:13:56.075Z,98644.16
2019-05-01T23:16:05.152Z,98635.91
2019-05-01T23:18:15.414Z,98637.36
2019-05-01T23:20:20.060Z,98634.85
2019-05-01T23:22:26.714Z,98626.17
2019-05-01T23:24:33.107Z,98621.48
2019-05-01T23:26:39.509Z,98614.16
2019-05-01T23:28:45.953Z,98616.89
2019-05-01T23:30:52.476Z,98608.69
2019-05-01T23:32:58.949Z,98602.22
2019-05-01T23:35:07.178Z,98611.20
2019-05-01T23:37:13.607Z,98616.17
2019-05-01T23:39:20.000Z,98614.09
2019-05-01T23:41:44.588Z,98610.69
2019-05-01T23:43:35.744Z,98612.05
2019-05-01T23:45:42.293Z,98613.41
2019-05-01T23:47:48.722Z,98625.32
2019-05-01T23:49:55.331Z,98621.01
2019-05-01T23:52:03.463Z,98622.34
2019-05-01T23:54:09.900Z,98614.91
2019-05-01T23:56:16.372Z,98615.78
2019-05-01T23:58:23.853Z,98617.08
